Time;durP1;ratioP1;P1;durP2;ratioP2;P2;SDS_P1;SDS_P2;PMS_P1;PMS_P2;Temp;Humidity;BMP_temperature;BMP_pressure;BME280_temperature;BME280_humidity;BME280_pressure;Samples;Min_cycle;Max_cycle;Signal;HPM_P1;HPM_P2
2023/02/25 00:01:33;;;;;;;7.82;2.90;;;;;;;4.25;100.00;99266.88;5071761;28;20091;-82
2023/02/25 00:04:00;;;;;;;7.43;2.45;;;;;;;4.30;100.00;99262.28;5056718;28;20090;-81
2023/02/25 00:06:27;;;;;;;8.38;2.72;;;;;;;3.99;100.00;99212.84;5073607;28;20148;-81
2023/02/25 00:08:54;;;;;;;12.40;3.33;;;;;;;4.35;100.00;99265.56;5074579;28;20120;-83
2023/02/25 00:11:24;;;;;;;12.00;3.08;;;;;;;4.16;100.00;99257.56;5073960;28;20052;-82
2023/02/25 00:13:51;;;;;;;12.23;3.17;;;;;;;4.02;100.00;99233.69;5050613;28;20048;-80
2023/02/25 00:16:19;;;;;;;6.93;2.90;;;;;;;3.78;100.00;99197.03;5069793;28;20143;-80
2023/02/25 00:18:47;;;;;;;12.57;3.00;;;;;;;4.04;100.00;99250.19;5073823;28;20048;-82
2023/02/25 00:21:15;;;;;;;10.65;3.33;;;;;;;3.48;100.00;99164.19;5072987;28;20106;-80
2023/02/25 00:23:44;;;;;;;8.30;2.45;;;;;;;3.70;100.00;99206.97;5076472;28;20160;-81
2023/02/25 00:26:13;;;;;;;11.30;3.20;;;;;;;4.23;100.00;99293.13;5072203;28;20045;-80
2023/02/25 00:28:41;;;;;;;5.67;2.63;;;;;;;4.20;100.00;99288.00;5072701;28;20049;-81
2023/02/25 00:31:10;;;;;;;13.82;3.10;;;;;;;3.59;100.00;99182.13;5055838;28;20497;-80
2023/02/25 00:33:40;;;;;;;10.48;3.42;;;;;;;3.33;100.00;99118.50;5072757;28;20057;-80
2023/02/25 00:36:10;;;;;;;10.57;3.05;;;;;;;4.39;100.00;99299.47;5073565;28;20041;-80
2023/02/25 00:38:37;;;;;;;14.23;3.88;;;;;;;4.01;100.00;99211.88;5074389;28;20053;-81
2023/02/25 00:41:12;;;;;;;12.07;3.22;;;;;;;4.48;100.00;99290.38;5073496;28;20131;-82
2023/02/25 00:43:48;;;;;;;14.25;3.50;;;;;;;4.51;100.00;99285.88;5073726;28;20074;-81
2023/02/25 00:46:15;;;;;;;9.15;3.22;;;;;;;4.11;100.00;99254.28;5071963;28;20044;-82
2023/02/25 00:48:42;;;;;;;7.47;3.45;;;;;;;4.21;100.00;99261.75;5073034;28;20064;-82
2023/02/25 00:51:12;;;;;;;11.35;3.10;;;;;;;4.39;100.00;99283.75;5052259;28;20045;-81
2023/02/25 00:53:39;;;;;;;11.98;3.75;;;;;;;3.74;100.00;99184.16;5056053;28;20049;-81
2023/02/25 00:56:08;;;;;;;15.38;3.42;;;;;;;4.35;100.00;99269.06;5073758;28;20044;-82
2023/02/25 00:58:37;;;;;;;19.45;3.85;;;;;;;4.13;100.00;99247.22;5071841;28;20060;-82
2023/02/25 01:01:13;;;;;;;13.65;3.50;;;;;;;3.74;100.00;99190.25;5072049;28;20674;-81
2023/02/25 01:03:40;;;;;;;15.02;3.78;;;;;;;3.94;100.00;99220.03;5072885;28;20131;-80
2023/02/25 01:06:08;;;;;;;7.53;3.20;;;;;;;4.17;100.00;99239.19;5071223;28;20048;-82
2023/02/25 01:08:35;;;;;;;17.60;3.97;;;;;;;4.56;100.00;99307.50;5071483;28;20514;-79
2023/02/25 01:11:20;;;;;;;10.63;3.53;;;;;;;4.40;100.00;99277.59;5073265;28;20143;-81
2023/02/25 01:13:48;;;;;;;9.48;3.05;;;;;;;4.42;100.00;99285.38;5079727;28;20048;-82
2023/02/25 01:16:18;;;;;;;18.30;4.47;;;;;;;4.55;100.00;99299.72;5078532;28;20132;-82
2023/02/25 01:18:48;;;;;;;10.50;4.05;;;;;;;4.18;100.00;99255.75;5078947;28;20052;-83
2023/02/25 01:21:17;;;;;;;9.18;3.92;;;;;;;4.41;100.00;99292.38;5079049;28;20051;-82
2023/02/25 01:23:45;;;;;;;16.40;4.20;;;;;;;4.45;100.00;99280.88;5079193;28;20054;-83
2023/02/25 01:26:13;;;;;;;12.18;4.28;;;;;;;4.37;100.00;99259.38;5058712;28;20412;-81
2023/02/25 01:28:40;;;;;;;11.57;4.38;;;;;;;4.36;100.00;99262.91;5074665;28;20045;-81
2023/02/25 01:31:15;;;;;;;15.18;4.97;;;;;;;4.45;100.00;99267.75;5076821;28;20053;-81
2023/02/25 01:33:42;;;;;;;13.25;4.50;;;;;;;4.55;100.00;99279.59;5072476;28;20109;-80
2023/02/25 01:36:09;;;;;;;15.85;4.43;;;;;;;3.86;100.00;99160.94;5074648;28;20079;-82
2023/02/25 01:38:36;;;;;;;12.52;4.25;;;;;;;3.34;100.00;99067.91;5076408;28;20134;-82
2023/02/25 01:41:03;;;;;;;12.18;3.72;;;;;;;4.00;100.00;99190.97;5078623;28;20059;-81
2023/02/25 01:43:29;;;;;;;14.88;3.78;;;;;;;4.04;100.00;99201.28;5078920;28;20048;-81
2023/02/25 01:45:56;;;;;;;10.82;3.60;;;;;;;4.64;100.00;99291.47;5078845;28;20048;-80
2023/02/25 01:48:27;;;;;;;17.55;4.20;;;;;;;3.97;100.00;99171.00;5079417;28;20465;-83
2023/02/25 01:50:58;;;;;;;11.50;3.65;;;;;;;4.61;100.00;99272.38;5053244;28;20434;-81
2023/02/25 01:53:32;;;;;;;15.32;4.30;;;;;;;4.05;100.00;99196.91;5061549;28;20064;-81
2023/02/25 01:56:00;;;;;;;13.98;4.05;;;;;;;4.02;100.00;99197.00;5079043;28;20091;-82
2023/02/25 01:58:28;;;;;;;10.75;4.40;;;;;;;4.04;100.00;99201.28;5075940;28;20080;-81
2023/02/25 02:00:55;;;;;;;13.75;3.92;;;;;;;4.51;100.00;99280.63;5078602;28;20147;-81
2023/02/25 02:03:29;;;;;;;11.85;3.88;;;;;;;3.48;100.00;99117.06;5071045;28;20053;-81
2023/02/25 02:06:12;;;;;;;13.85;4.68;;;;;;;4.38;100.00;99274.19;5078356;28;20086;-81
2023/02/25 02:08:41;;;;;;;15.18;3.75;;;;;;;3.68;100.00;99159.06;5079072;28;20125;-81
2023/02/25 02:11:08;;;;;;;9.30;3.67;;;;;;;4.41;100.00;99281.91;5078851;28;20044;-82
2023/02/25 02:13:37;;;;;;;16.02;4.20;;;;;;;4.51;100.00;99308.63;5078904;28;20048;-80
2023/02/25 02:16:22;;;;;;;16.60;4.30;;;;;;;4.53;100.00;99310.28;5070018;28;20041;-81
2023/02/25 02:19:04;;;;;;;13.18;4.10;;;;;;;4.32;100.00;99282.28;5071038;28;20056;-79
2023/02/25 02:21:54;;;;;;;12.75;4.20;;;;;;;3.98;100.00;99219.84;5078830;28;20134;-81
2023/02/25 02:24:40;;;;;;;16.10;4.50;;;;;;;4.48;100.00;99306.09;5075049;28;20135;-81
2023/02/25 02:27:13;;;;;;;10.10;3.40;;;;;;;4.50;100.00;99306.91;5074177;28;20146;-80
2023/02/25 02:29:52;;;;;;;17.63;3.50;;;;;;;4.44;100.00;99300.13;5073730;28;20160;-82
2023/02/25 02:32:39;;;;;;;14.40;3.72;;;;;;;4.49;100.00;99315.69;5056524;28;20186;-80
2023/02/25 02:35:43;;;;;;;11.13;3.72;;;;;;;4.29;100.00;99264.03;5055585;28;20047;-80
2023/02/25 02:38:20;;;;;;;14.15;3.70;;;;;;;4.47;100.00;99317.50;5041882;28;20138;-80
2023/02/25 02:41:05;;;;;;;12.40;3.67;;;;;;;4.45;100.00;99314.94;5074864;28;20048;-80
2023/02/25 02:43:44;;;;;;;13.20;3.80;;;;;;;4.29;100.00;99285.00;5072741;28;20056;-79
2023/02/25 02:46:26;;;;;;;13.13;3.70;;;;;;;4.47;100.00;99300.00;5070325;28;20064;-81
2023/02/25 02:49:08;;;;;;;13.52;3.63;;;;;;;4.30;100.00;99263.13;5064788;28;20080;-81
2023/02/25 02:51:47;;;;;;;11.20;3.47;;;;;;;4.10;100.00;99231.59;5075306;28;20040;-81
2023/02/25 02:54:16;;;;;;;16.50;3.58;;;;;;;3.76;100.00;99171.84;5074516;28;20048;-80
2023/02/25 02:56:48;;;;;;;13.05;4.30;;;;;;;4.49;100.00;99290.31;5071151;28;20612;-81
2023/02/25 02:59:26;;;;;;;8.98;3.60;;;;;;;4.38;100.00;99274.19;5075212;28;20132;-80
2023/02/25 03:02:03;;;;;;;14.10;3.90;;;;;;;3.50;100.00;99126.56;5071937;28;20095;-81
2023/02/25 03:04:34;;;;;;;9.23;3.72;;;;;;;4.00;100.00;99212.78;5072200;28;20524;-80
2023/02/25 03:07:04;;;;;;;11.60;3.45;;;;;;;3.80;100.00;99169.03;5075242;28;20040;-81
2023/02/25 03:09:37;;;;;;;11.25;3.70;;;;;;;4.53;100.00;99310.28;5073572;28;20052;-82
2023/02/25 03:12:03;;;;;;;10.27;3.35;;;;;;;3.45;100.00;99133.78;5075329;28;20135;-82
2023/02/25 03:14:30;;;;;;;12.30;4.30;;;;;;;4.12;100.00;99266.47;5075130;28;20058;-80
2023/02/25 03:17:04;;;;;;;16.38;4.47;;;;;;;4.38;100.00;99321.34;5073980;28;20470;-80
2023/02/25 03:19:41;;;;;;;15.25;3.60;;;;;;;3.40;100.00;99163.63;5074956;28;20056;-80
2023/02/25 03:22:12;;;;;;;13.30;3.25;;;;;;;4.35;100.00;99316.22;5073088;28;20581;-80
2023/02/25 03:24:47;;;;;;;15.80;3.90;;;;;;;3.14;100.00;99139.31;5071934;28;20048;-80
2023/02/25 03:27:33;;;;;;;14.25;3.70;;;;;;;3.73;100.00;99226.94;5073230;28;20055;-80
2023/02/25 03:30:11;;;;;;;17.33;3.75;;;;;;;4.35;100.00;99313.59;5076042;28;20044;-80
2023/02/25 03:32:45;;;;;;;11.32;3.13;;;;;;;4.35;100.00;99318.84;5082461;28;20048;-80
2023/02/25 03:35:16;;;;;;;13.90;3.97;;;;;;;4.34;100.00;99311.03;5073411;28;20370;-80
2023/02/25 03:37:47;;;;;;;15.23;4.03;;;;;;;4.40;100.00;99316.91;5073495;28;20144;-81
2023/02/25 03:40:17;;;;;;;19.55;4.25;;;;;;;3.59;100.00;99187.34;5079797;28;20040;-80
2023/02/25 03:42:49;;;;;;;12.82;3.47;;;;;;;4.16;100.00;99289.88;5083473;28;20052;-80
2023/02/25 03:45:17;;;;;;;13.30;3.50;;;;;;;4.43;100.00;99318.53;5083161;28;20060;-80
2023/02/25 03:47:44;;;;;;;15.30;3.88;;;;;;;4.24;100.00;99294.84;5087535;28;20052;-80
2023/02/25 03:50:10;;;;;;;16.55;3.78;;;;;;;4.46;100.00;99324.53;5085689;28;20041;-80
2023/02/25 03:52:40;;;;;;;13.65;3.67;;;;;;;4.09;100.00;99275.28;5074658;28;20052;-79
2023/02/25 03:55:09;;;;;;;14.02;3.67;;;;;;;4.41;100.00;99341.31;5069664;28;20071;-79
2023/02/25 03:57:39;;;;;;;16.63;4.38;;;;;;;3.97;100.00;99272.28;5071516;28;20052;-79
2023/02/25 04:00:27;;;;;;;15.73;3.92;;;;;;;4.40;100.00;99340.50;5078520;28;20536;-81
2023/02/25 04:02:54;;;;;;;15.13;4.45;;;;;;;4.35;100.00;99331.94;5069062;28;20062;-79
2023/02/25 04:05:22;;;;;;;14.10;4.10;;;;;;;4.24;100.00;99310.56;5058070;28;20098;-79
2023/02/25 04:07:49;;;;;;;13.50;4.00;;;;;;;4.19;100.00;99315.09;5065472;28;20144;-79
2023/02/25 04:10:16;;;;;;;15.00;4.00;;;;;;;4.29;100.00;99326.94;5074755;28;20139;-78
2023/02/25 04:12:43;;;;;;;15.55;4.07;;;;;;;4.15;100.00;99303.88;5072285;28;20138;-79
2023/02/25 04:15:10;;;;;;;13.68;3.70;;;;;;;4.46;100.00;99353.34;5071505;28;20131;-80
2023/02/25 04:17:36;;;;;;;13.50;4.03;;;;;;;4.50;100.00;99352.31;5070574;28;20167;-79
2023/02/25 04:20:04;;;;;;;17.73;4.40;;;;;;;4.15;100.00;99300.41;5066346;28;20087;-80
2023/02/25 04:22:32;;;;;;;14.75;4.38;;;;;;;3.59;100.00;99208.28;5068224;28;20143;-81
2023/02/25 04:24:59;;;;;;;13.95;4.57;;;;;;;4.09;100.00;99298.03;5072997;28;20139;-82
2023/02/25 04:27:26;;;;;;;14.38;4.10;;;;;;;4.40;100.00;99353.59;5071686;28;20040;-81
2023/02/25 04:29:52;;;;;;;13.15;4.55;;;;;;;3.72;100.00;99236.56;5050446;28;20464;-81
2023/02/25 04:32:19;;;;;;;11.52;4.53;;;;;;;3.49;100.00;99200.78;5069048;28;20121;-84
2023/02/25 04:34:46;;;;;;;18.88;4.45;;;;;;;4.32;100.00;99347.78;5069501;28;20063;-82
2023/02/25 04:37:13;;;;;;;14.93;4.57;;;;;;;3.76;100.00;99272.22;5066729;28;20143;-80
2023/02/25 04:39:40;;;;;;;14.90;4.30;;;;;;;4.33;100.00;99359.97;5067553;28;20093;-80
2023/02/25 04:42:07;;;;;;;18.73;4.45;;;;;;;4.26;100.00;99352.41;5071711;28;20091;-81
2023/02/25 04:44:34;;;;;;;17.35;4.78;;;;;;;3.81;100.00;99287.72;5072694;28;20068;-81
2023/02/25 04:47:00;;;;;;;10.95;4.60;;;;;;;3.64;100.00;99270.03;5085235;28;20044;-82
2023/02/25 04:49:27;;;;;;;13.50;4.45;;;;;;;3.82;100.00;99310.38;5089248;28;20040;-82
2023/02/25 04:51:54;;;;;;;13.77;4.88;;;;;;;3.76;100.00;99292.31;5087711;28;20068;-82
2023/02/25 04:54:21;;;;;;;13.27;4.47;;;;;;;4.06;100.00;99356.66;5074698;28;20564;-82
2023/02/25 04:56:48;;;;;;;17.08;5.30;;;;;;;3.46;100.00;99266.31;5072822;28;20044;-83
2023/02/25 04:59:16;;;;;;;15.85;4.78;;;;;;;2.73;100.00;99153.00;5068857;28;20040;-81
2023/02/25 05:01:43;;;;;;;17.90;4.57;;;;;;;2.93;100.00;99176.69;5075847;28;20559;-82
2023/02/25 05:04:10;;;;;;;13.88;4.75;;;;;;;3.57;100.00;99313.06;5073868;28;20044;-82
2023/02/25 05:06:38;;;;;;;18.80;5.00;;;;;;;3.59;100.00;99311.25;5071313;28;20139;-81
2023/02/25 05:09:04;;;;;;;18.05;5.68;;;;;;;3.30;100.00;99280.03;5073187;28;20056;-82
2023/02/25 05:11:31;;;;;;;14.60;5.13;;;;;;;3.76;100.00;99348.16;5072534;28;20059;-82
2023/02/25 05:13:58;;;;;;;12.63;4.20;;;;;;;3.76;100.00;99349.91;5054759;28;20083;-82
2023/02/25 05:16:26;;;;;;;12.65;4.60;;;;;;;3.93;100.00;99365.00;5063879;28;20057;-82
2023/02/25 05:18:53;;;;;;;14.90;4.78;;;;;;;3.50;100.00;99283.63;5064908;28;20106;-82
2023/02/25 05:21:23;;;;;;;16.33;4.47;;;;;;;3.88;100.00;99354.69;5069659;28;20627;-81
2023/02/25 05:23:52;;;;;;;14.48;4.30;;;;;;;3.71;100.00;99302.06;5072367;28;20131;-82
2023/02/25 05:26:20;;;;;;;13.40;4.55;;;;;;;3.38;100.00;99225.63;5072384;28;20044;-82
2023/02/25 05:28:50;;;;;;;18.38;4.53;;;;;;;4.01;100.00;99342.84;5071246;28;20143;-84
2023/02/25 05:31:17;;;;;;;13.20;4.63;;;;;;;3.66;100.00;99307.47;5068801;28;20051;-81
2023/02/25 05:33:44;;;;;;;20.88;5.28;;;;;;;3.55;100.00;99307.00;5071540;28;20067;-81
2023/02/25 05:36:13;;;;;;;14.80;4.38;;;;;;;3.85;100.00;99365.28;5072393;28;20048;-82
2023/02/25 05:38:40;;;;;;;16.23;4.70;;;;;;;3.41;100.00;99283.97;5072898;28;20115;-80
2023/02/25 05:41:07;;;;;;;13.50;3.85;;;;;;;3.28;100.00;99245.19;5072024;28;20045;-79
2023/02/25 05:43:35;;;;;;;13.50;4.35;;;;;;;3.57;100.00;99286.88;5069119;28;20091;-80
2023/02/25 05:46:03;;;;;;;12.43;4.50;;;;;;;3.87;100.00;99330.28;5071466;28;20052;-79
2023/02/25 05:48:31;;;;;;;14.30;4.15;;;;;;;3.43;100.00;99265.59;5071771;28;20079;-80
2023/02/25 05:51:03;;;;;;;8.57;4.10;;;;;;;3.90;100.00;99338.94;5072064;28;20516;-82
2023/02/25 05:53:31;;;;;;;13.07;4.15;;;;;;;3.88;100.00;99339.84;5071442;28;20511;-81
2023/02/25 05:55:58;;;;;;;15.10;3.95;;;;;;;3.84;100.00;99346.09;5071701;28;20075;-80
2023/02/25 05:58:25;;;;;;;12.77;4.00;;;;;;;3.81;100.00;99340.09;5067064;28;20076;-84
2023/02/25 06:00:52;;;;;;;15.48;4.18;;;;;;;2.16;100.00;99056.59;5068840;28;20117;-84
2023/02/25 06:03:19;;;;;;;12.77;4.22;;;;;;;2.89;100.00;99201.22;5076423;28;20159;-84
2023/02/25 06:05:46;;;;;;;11.88;4.20;;;;;;;3.53;100.00;99285.28;5076257;28;20453;-84
2023/02/25 06:08:13;;;;;;;13.43;4.60;;;;;;;3.32;100.00;99258.09;5076267;28;20055;-85
2023/02/25 06:10:40;;;;;;;14.38;4.53;;;;;;;3.85;100.00;99326.84;5076094;28;20079;-84
2023/02/25 06:13:08;;;;;;;12.65;3.75;;;;;;;4.13;100.00;99365.09;5075829;28;20079;-83
2023/02/25 06:15:40;;;;;;;10.32;4.15;;;;;;;4.07;100.00;99362.75;5075468;28;20052;-83
2023/02/25 06:18:08;;;;;;;11.15;4.43;;;;;;;3.96;100.00;99343.91;5069958;28;20067;-83
2023/02/25 06:20:35;;;;;;;16.45;4.60;;;;;;;4.11;100.00;99359.94;5075809;28;20052;-83
2023/02/25 06:23:02;;;;;;;13.45;4.43;;;;;;;4.09;100.00;99359.13;5076090;28;20147;-84
2023/02/25 06:25:29;;;;;;;10.70;4.70;;;;;;;3.36;100.00;99233.53;5075127;28;20049;-80
2023/02/25 06:27:57;;;;;;;11.57;4.68;;;;;;;3.52;100.00;99254.78;5070857;28;20074;-81
2023/02/25 06:30:23;;;;;;;13.70;4.93;;;;;;;4.04;100.00;99347.97;5075263;28;20090;-81
2023/02/25 06:32:50;;;;;;;16.98;5.07;;;;;;;4.18;100.00;99376.28;5071171;28;20058;-82
2023/02/25 06:35:22;;;;;;;14.68;4.97;;;;;;;3.49;100.00;99279.28;5075797;28;20044;-83
2023/02/25 06:37:56;;;;;;;15.05;4.75;;;;;;;3.36;100.00;99253.63;5075814;28;20104;-83
2023/02/25 06:40:24;;;;;;;15.73;4.78;;;;;;;4.03;100.00;99372.47;5076101;28;20131;-82
2023/02/25 06:42:51;;;;;;;14.80;5.20;;;;;;;3.49;100.00;99302.84;5068868;28;20115;-82
2023/02/25 06:45:18;;;;;;;13.88;4.68;;;;;;;3.48;100.00;99284.56;5072823;28;20071;-80
2023/02/25 06:47:44;;;;;;;12.63;4.88;;;;;;;4.12;100.00;99392.22;5072596;28;20135;-81
2023/02/25 06:50:11;;;;;;;10.05;4.82;;;;;;;4.10;100.00;99383.56;5074725;28;20066;-81
2023/02/25 06:52:39;;;;;;;15.23;4.53;;;;;;;3.87;100.00;99345.97;5071029;28;20114;-81
2023/02/25 06:55:06;;;;;;;18.60;5.15;;;;;;;3.97;100.00;99369.19;5072857;28;20078;-81
2023/02/25 06:57:34;;;;;;;19.17;5.35;;;;;;;4.13;100.00;99400.03;5072777;28;20044;-82
2023/02/25 07:00:04;;;;;;;15.48;6.05;;;;;;;4.01;100.00;99389.16;5074152;28;20128;-83
2023/02/25 07:02:33;;;;;;;15.63;5.53;;;;;;;3.81;100.00;99343.56;5074389;28;20048;-81
2023/02/25 07:05:01;;;;;;;13.90;4.82;;;;;;;4.21;100.00;99398.00;5072297;28;20540;-81
2023/02/25 07:07:28;;;;;;;13.65;5.20;;;;;;;2.87;100.00;99169.03;5073889;28;20048;-82
2023/02/25 07:09:55;;;;;;;15.20;4.90;;;;;;;3.75;100.00;99324.63;5074519;28;20125;-81
2023/02/25 07:12:21;;;;;;;11.90;4.85;;;;;;;3.76;100.00;99319.34;5073994;28;20058;-80
2023/02/25 07:14:48;;;;;;;22.48;5.95;;;;;;;4.07;100.00;99373.22;5068258;28;20063;-79
2023/02/25 07:17:15;;;;;;;14.77;4.82;;;;;;;3.88;100.00;99355.56;5072441;28;20124;-82
2023/02/25 07:19:42;;;;;;;14.25;5.05;;;;;;;4.19;100.00;99420.78;5070209;28;20112;-80
2023/02/25 07:22:14;;;;;;;14.10;5.07;;;;;;;4.11;100.00;99408.84;5074692;28;20041;-79
2023/02/25 07:25:43;;;;;;;18.50;5.22;;;;;;;2.52;100.00;99156.38;5074553;28;20045;-81
2023/02/25 07:28:08;;;;;;;16.65;5.03;;;;;;;4.19;100.00;99438.25;5067619;28;20678;-81
2023/02/25 07:30:52;;;;;;;16.17;5.57;;;;;;;2.34;100.00;99102.97;5073873;28;20060;-79
2023/02/25 07:33:20;;;;;;;12.93;5.10;;;;;;;2.70;100.00;99187.94;5073293;28;20143;-80
2023/02/25 07:35:47;;;;;;;16.55;5.95;;;;;;;3.63;100.00;99320.66;5072866;28;20049;-79
2023/02/25 07:38:14;;;;;;;17.67;6.00;;;;;;;4.06;100.00;99398.56;5069709;28;20127;-79
2023/02/25 07:40:40;;;;;;;18.42;5.50;;;;;;;3.72;100.00;99341.28;5073556;28;20158;-81
2023/02/25 07:43:07;;;;;;;13.77;6.05;;;;;;;4.19;100.00;99405.06;5073838;28;20072;-80
2023/02/25 07:45:34;;;;;;;19.25;6.70;;;;;;;4.40;100.00;99442.72;5073882;28;20289;-81
2023/02/25 07:48:01;;;;;;;22.85;5.90;;;;;;;3.72;100.00;99311.63;5073283;28;20530;-81
2023/02/25 07:50:27;;;;;;;16.02;5.72;;;;;;;4.18;100.00;99377.13;5073605;28;20423;-80
2023/02/25 07:52:54;;;;;;;16.30;6.00;;;;;;;3.50;100.00;99262.69;5074875;28;20117;-79
2023/02/25 07:55:25;;;;;;;15.82;6.38;;;;;;;3.38;100.00;99254.41;5065107;28;20093;-81
2023/02/25 07:57:52;;;;;;;13.15;5.72;;;;;;;4.35;100.00;99414.97;5064803;28;20106;-80
2023/02/25 08:00:19;;;;;;;17.73;6.85;;;;;;;3.42;100.00;99256.03;5070763;28;20067;-80
2023/02/25 08:02:46;;;;;;;20.50;6.45;;;;;;;3.65;100.00;99303.16;5053886;28;20056;-79
2023/02/25 08:05:12;;;;;;;14.23;6.07;;;;;;;4.26;100.00;99405.66;5070445;28;20102;-83
2023/02/25 08:07:39;;;;;;;19.77;7.28;;;;;;;3.13;100.00;99218.69;5067003;28;20033;-80
2023/02/25 08:10:07;;;;;;;14.55;6.10;;;;;;;4.61;100.00;99443.66;5066770;28;20068;-80
2023/02/25 08:12:34;;;;;;;16.13;6.75;;;;;;;4.64;100.00;99453.19;5054237;28;20087;-80
2023/02/25 08:15:00;;;;;;;17.08;6.20;;;;;;;4.08;100.00;99356.59;5073751;28;20052;-82
2023/02/25 08:17:31;;;;;;;15.63;6.57;;;;;;;4.00;100.00;99346.38;5065284;28;20071;-81
2023/02/25 08:19:58;;;;;;;10.52;6.25;;;;;;;2.97;100.00;99188.75;5065095;28;20051;-81
2023/02/25 08:22:25;;;;;;;19.33;6.35;;;;;;;4.45;100.00;99429.44;5072482;28;20056;-80
2023/02/25 08:24:51;;;;;;;16.35;6.50;;;;;;;3.97;100.00;99345.63;5073106;28;20044;-82
2023/02/25 08:27:18;;;;;;;14.50;6.35;;;;;;;4.69;100.00;99462.59;5073635;28;20040;-80
2023/02/25 08:29:45;;;;;;;20.27;6.30;;;;;;;4.77;100.00;99460.53;5073331;28;20056;-83
2023/02/25 08:32:12;;;;;;;18.15;6.55;;;;;;;4.52;100.00;99413.44;5073305;28;20106;-80
2023/02/25 08:34:39;;;;;;;19.95;6.38;;;;;;;4.82;100.00;99442.88;5073406;28;20083;-81
2023/02/25 08:37:09;;;;;;;14.13;6.70;;;;;;;3.44;100.00;99217.56;5073218;28;20059;-81
2023/02/25 08:39:36;;;;;;;;;;;;;;;4.93;100.00;99447.69;5074442;28;20053;-80
2023/02/25 08:42:04;;;;;;;16.20;6.18;;;;;;;3.37;100.00;99179.44;5073711;28;19921;-80
2023/02/25 08:44:30;;;;;;;19.20;6.55;;;;;;;4.79;100.00;99413.25;5073655;28;20568;-80
2023/02/25 08:46:57;;;;;;;14.80;6.78;;;;;;;4.15;100.00;99309.13;5075632;28;20056;-81
2023/02/25 08:49:24;;;;;;;15.25;6.63;;;;;;;4.91;100.00;99433.75;5082110;28;20493;-80
2023/02/25 08:51:51;;;;;;;16.75;7.57;;;;;;;4.76;100.00;99408.13;5080043;28;20060;-80
2023/02/25 08:54:18;;;;;;;18.38;6.57;;;;;;;4.84;100.00;99427.91;5080606;28;20048;-82
2023/02/25 08:56:44;;;;;;;14.68;6.47;;;;;;;4.35;100.00;99365.16;5071589;28;20056;-80
2023/02/25 08:59:14;;;;;;;19.02;6.68;;;;;;;4.84;100.00;99472.50;5081713;28;20052;-80
2023/02/25 09:01:44;;;;;;;18.07;6.90;;;;;;;4.10;100.00;99354.75;5077186;28;20055;-80
2023/02/25 09:04:16;;;;;;;15.30;6.55;;;;;;;3.06;100.00;99174.47;5062953;28;20485;-82
2023/02/25 09:06:46;;;;;;;16.85;6.88;;;;;;;3.10;100.00;99182.16;5077030;28;20048;-80
2023/02/25 09:09:17;;;;;;;18.70;6.90;;;;;;;4.19;100.00;99331.69;5074841;28;20041;-80
2023/02/25 09:11:43;;;;;;;;;;;;;;;4.99;100.00;99460.56;5073190;28;20048;-82
2023/02/25 09:14:10;;;;;;;18.15;6.85;;;;;;;4.79;100.00;99415.88;5076326;28;19924;-79
2023/02/25 09:16:37;;;;;;;16.73;6.22;;;;;;;3.37;98.98;99177.69;5074717;28;20072;-79
2023/02/25 09:19:04;;;;;;;16.17;6.35;;;;;;;3.90;100.00;99270.84;5074261;28;20071;-81
2023/02/25 09:21:31;;;;;;;18.20;6.20;;;;;;;4.99;99.70;99470.22;5072536;28;20125;-79
2023/02/25 09:23:58;;;;;;;12.25;5.35;;;;;;;4.65;97.56;99420.81;5056022;28;20056;-80
2023/02/25 09:26:25;;;;;;;17.67;5.80;;;;;;;4.40;97.34;99392.94;5083115;28;20086;-79
2023/02/25 09:28:52;;;;;;;14.23;5.40;;;;;;;4.72;95.65;99432.78;5078428;28;20048;-81
2023/02/25 09:31:18;;;;;;;12.90;4.90;;;;;;;4.67;94.43;99427.72;5077282;28;20061;-80
2023/02/25 09:33:45;;;;;;;15.70;5.60;;;;;;;4.73;94.82;99437.94;5072648;28;20114;-79
2023/02/25 09:36:17;;;;;;;13.50;5.25;;;;;;;4.72;91.95;99425.75;5073134;28;20078;-80
2023/02/25 09:38:46;;;;;;;16.08;5.93;;;;;;;4.88;92.49;99432.09;5081094;28;20048;-81
2023/02/25 09:41:34;;;;;;;13.13;5.40;;;;;;;5.20;92.79;99470.19;5087409;28;20052;-78
2023/02/25 09:44:32;;;;;;;16.70;5.43;;;;;;;5.32;92.58;99473.28;5085152;28;20076;-80
2023/02/25 09:47:05;;;;;;;23.25;6.50;;;;;;;4.93;91.32;99392.59;5072618;28;20076;-79
2023/02/25 09:49:59;;;;;;;12.05;5.38;;;;;;;5.38;89.54;99465.97;5081369;28;20067;-81
2023/02/25 09:52:51;;;;;;;12.82;4.68;;;;;;;5.37;88.63;99426.66;5078934;28;20123;-81
2023/02/25 09:55:36;;;;;;;13.73;4.82;;;;;;;4.79;84.65;99282.13;5090900;28;20032;-80
2023/02/25 09:58:16;;;;;;;12.93;5.43;;;;;;;6.11;82.71;99448.94;5089796;28;20041;-80
2023/02/25 10:01:09;;;;;;;12.77;5.10;;;;;;;6.07;78.33;99442.09;5086741;28;20044;-80
2023/02/25 10:04:07;;;;;;;10.05;4.75;;;;;;;6.36;77.98;99460.06;5088062;28;20032;-81
2023/02/25 10:06:41;;;;;;;14.00;4.50;;;;;;;6.27;75.20;99418.44;5090631;28;20047;-80
2023/02/25 10:09:37;;;;;;;11.68;4.18;;;;;;;6.16;73.61;99391.75;5088787;28;20066;-79
2023/02/25 10:12:28;;;;;;;15.55;3.88;;;;;;;6.41;74.48;99458.09;5075757;28;20461;-82
2023/02/25 10:15:19;;;;;;;12.68;4.25;;;;;;;5.59;74.71;99314.56;5075328;28;20106;-80
2023/02/25 10:18:07;;;;;;;14.75;4.65;;;;;;;6.53;72.29;99465.44;5072468;28;20048;-81
2023/02/25 10:21:12;;;;;;;14.77;3.80;;;;;;;6.38;71.63;99465.25;5075584;28;20072;-83
2023/02/25 10:24:16;;;;;;;12.73;4.57;;;;;;;6.32;73.74;99463.75;5071110;28;20079;-80
2023/02/25 10:26:48;;;;;;;14.23;4.47;;;;;;;6.08;74.45;99442.03;5075633;28;20116;-79
2023/02/25 10:29:30;;;;;;;11.57;4.55;;;;;;;6.22;74.08;99450.16;5079267;28;20044;-81
2023/02/25 10:31:59;;;;;;;12.35;4.47;;;;;;;6.39;75.22;99462.56;5077059;28;20041;-81
2023/02/25 10:34:28;;;;;;;12.68;4.15;;;;;;;6.45;75.08;99475.47;5085139;28;20052;-80
2023/02/25 10:36:57;;;;;;;16.67;3.97;;;;;;;6.49;74.27;99460.38;5081573;28;20420;-80
2023/02/25 10:39:26;;;;;;;12.35;3.88;;;;;;;6.12;71.93;99416.50;5073988;28;20045;-80
2023/02/25 10:41:53;;;;;;;16.65;4.43;;;;;;;5.90;72.74;99364.00;5072393;28;20128;-79
2023/02/25 10:44:20;;;;;;;11.27;4.07;;;;;;;6.42;72.90;99472.97;5070935;28;20068;-82
2023/02/25 10:47:05;;;;;;;16.42;3.55;;;;;;;6.37;73.14;99461.78;5072865;28;20063;-80
2023/02/25 10:49:37;;;;;;;11.73;3.85;;;;;;;6.43;72.78;99463.28;5074702;28;20052;-79
2023/02/25 10:52:16;;;;;;;12.13;4.18;;;;;;;6.50;74.54;99465.56;5073383;28;20553;-81
2023/02/25 10:54:51;;;;;;;10.43;3.92;;;;;;;6.41;74.27;99462.50;5071805;28;20048;-81
2023/02/25 10:57:25;;;;;;;10.98;3.97;;;;;;;6.53;74.51;99468.06;5072921;28;20072;-79
2023/02/25 11:00:06;;;;;;;15.23;4.25;;;;;;;6.59;74.28;99445.91;5073766;28;20109;-83
2023/02/25 11:02:40;;;;;;;11.70;4.40;;;;;;;6.10;75.62;99371.00;5068577;28;20147;-81
2023/02/25 11:05:31;;;;;;;14.77;4.35;;;;;;;6.61;75.82;99468.56;5073884;28;20106;-81
2023/02/25 11:07:58;;;;;;;10.77;4.50;;;;;;;6.09;76.34;99383.31;5073005;28;20180;-81
2023/02/25 11:10:25;;;;;;;12.20;4.30;;;;;;;6.60;77.49;99480.03;5072527;28;20048;-81
2023/02/25 11:12:55;;;;;;;13.80;4.20;;;;;;;6.67;77.84;99485.84;5068561;28;20501;-80
2023/02/25 11:15:22;;;;;;;12.32;4.03;;;;;;;6.72;75.68;99467.22;5072537;28;20139;-80
2023/02/25 11:18:21;;;;;;;9.45;4.20;;;;;;;6.73;73.76;99474.19;5072056;28;20052;-81
2023/02/25 11:21:01;;;;;;;12.27;3.92;;;;;;;6.44;75.14;99434.31;5069810;28;20056;-82
2023/02/25 11:23:33;;;;;;;11.18;4.50;;;;;;;6.35;76.35;99442.59;5072940;28;20167;-81
2023/02/25 11:26:00;;;;;;;9.85;4.45;;;;;;;5.61;77.68;99326.72;5072422;28;20446;-81
2023/02/25 11:28:31;;;;;;;12.18;4.10;;;;;;;6.42;79.76;99487.88;5072639;28;20079;-80
2023/02/25 11:31:27;;;;;;;18.30;4.80;;;;;;;6.13;87.28;99499.69;5072290;28;20079;-80
2023/02/25 11:33:58;;;;;;;13.82;4.55;;;;;;;5.46;93.45;99440.28;5072858;28;20052;-80
2023/02/25 11:36:30;;;;;;;9.88;3.63;;;;;;;5.12;100.00;99456.53;5067948;28;20052;-79
2023/02/25 11:39:17;;;;;;;7.50;3.67;;;;;;;5.05;100.00;99515.41;5072697;28;20140;-81
2023/02/25 11:41:52;;;;;;;10.57;4.07;;;;;;;4.83;100.00;99477.81;5070684;28;20116;-81
2023/02/25 11:44:25;;;;;;;9.23;3.00;;;;;;;5.18;100.00;99500.94;5068033;28;20135;-81
2023/02/25 11:47:03;;;;;;;4.22;1.80;;;;;;;5.34;100.00;99487.19;5070369;28;20145;-79